sensor_id;sensor_type;location;lat;lon;timestamp;P1;durP1;ratioP1;P2;durP2;ratioP2
59167;SDS011;70412;55.048;73.268;2023-06-26T00:01:15;13.00;;;8.23;;
59167;SDS011;70412;55.048;73.268;2023-06-26T00:04:17;13.13;;;8.57;;
59167;SDS011;70412;55.048;73.268;2023-06-26T00:07:20;12.10;;;8.00;;
59167;SDS011;70412;55.048;73.268;2023-06-26T00:10:23;13.07;;;8.27;;
59167;SDS011;70412;55.048;73.268;2023-06-26T00:13:26;19.20;;;8.70;;
59167;SDS011;70412;55.048;73.268;2023-06-26T00:16:29;13.27;;;8.30;;
59167;SDS011;70412;55.048;73.268;2023-06-26T00:19:32;19.02;;;8.90;;
59167;SDS011;70412;55.048;73.268;2023-06-26T00:22:36;16.00;;;8.10;;
59167;SDS011;70412;55.048;73.268;2023-06-26T00:25:43;11.95;;;8.25;;
59167;SDS011;70412;55.048;73.268;2023-06-26T00:28:47;16.33;;;8.68;;
59167;SDS011;70412;55.048;73.268;2023-06-26T00:31:50;14.02;;;8.85;;
59167;SDS011;70412;55.048;73.268;2023-06-26T00:34:52;13.38;;;8.63;;
59167;SDS011;70412;55.048;73.268;2023-06-26T00:37:55;13.30;;;8.60;;
59167;SDS011;70412;55.048;73.268;2023-06-26T00:40:57;14.60;;;8.70;;
59167;SDS011;70412;55.048;73.268;2023-06-26T00:44:00;11.82;;;8.07;;
59167;SDS011;70412;55.048;73.268;2023-06-26T00:47:02;15.93;;;7.63;;
59167;SDS011;70412;55.048;73.268;2023-06-26T00:50:05;14.02;;;8.20;;
59167;SDS011;70412;55.048;73.268;2023-06-26T00:53:11;13.57;;;7.28;;
59167;SDS011;70412;55.048;73.268;2023-06-26T00:56:17;17.67;;;8.35;;
59167;SDS011;70412;55.048;73.268;2023-06-26T00:59:21;13.55;;;8.07;;
59167;SDS011;70412;55.048;73.268;2023-06-26T01:02:23;12.57;;;7.65;;
59167;SDS011;70412;55.048;73.268;2023-06-26T01:05:26;14.88;;;8.38;;
59167;SDS011;70412;55.048;73.268;2023-06-26T01:08:35;15.55;;;7.85;;
59167;SDS011;70412;55.048;73.268;2023-06-26T01:11:38;14.98;;;7.80;;
59167;SDS011;70412;55.048;73.268;2023-06-26T01:14:41;11.95;;;7.55;;
59167;SDS011;70412;55.048;73.268;2023-06-26T01:17:44;19.50;;;9.13;;
59167;SDS011;70412;55.048;73.268;2023-06-26T01:20:48;14.05;;;8.23;;
59167;SDS011;70412;55.048;73.268;2023-06-26T01:27:07;12.77;;;8.10;;
59167;SDS011;70412;55.048;73.268;2023-06-26T01:30:10;13.55;;;8.15;;
59167;SDS011;70412;55.048;73.268;2023-06-26T01:33:15;15.30;;;8.23;;
59167;SDS011;70412;55.048;73.268;2023-06-26T01:36:17;12.00;;;7.82;;
59167;SDS011;70412;55.048;73.268;2023-06-26T01:39:20;12.05;;;7.75;;
59167;SDS011;70412;55.048;73.268;2023-06-26T01:42:22;12.85;;;7.50;;
59167;SDS011;70412;55.048;73.268;2023-06-26T01:45:27;13.05;;;7.68;;
59167;SDS011;70412;55.048;73.268;2023-06-26T01:48:40;11.55;;;7.70;;
59167;SDS011;70412;55.048;73.268;2023-06-26T01:51:55;12.13;;;7.47;;
59167;SDS011;70412;55.048;73.268;2023-06-26T01:55:17;14.57;;;7.68;;
59167;SDS011;70412;55.048;73.268;2023-06-26T01:58:22;13.93;;;7.45;;
59167;SDS011;70412;55.048;73.268;2023-06-26T02:01:28;13.55;;;7.78;;
59167;SDS011;70412;55.048;73.268;2023-06-26T02:04:33;13.57;;;7.38;;
59167;SDS011;70412;55.048;73.268;2023-06-26T02:07:35;14.60;;;7.93;;
59167;SDS011;70412;55.048;73.268;2023-06-26T02:10:38;10.00;;;7.30;;
59167;SDS011;70412;55.048;73.268;2023-06-26T02:13:40;12.82;;;6.93;;
59167;SDS011;70412;55.048;73.268;2023-06-26T02:16:43;12.90;;;7.10;;
59167;SDS011;70412;55.048;73.268;2023-06-26T02:19:45;17.35;;;7.60;;
59167;SDS011;70412;55.048;73.268;2023-06-26T02:22:50;14.48;;;7.80;;
59167;SDS011;70412;55.048;73.268;2023-06-26T02:25:53;17.70;;;7.35;;
59167;SDS011;70412;55.048;73.268;2023-06-26T02:28:55;10.93;;;7.07;;
59167;SDS011;70412;55.048;73.268;2023-06-26T02:31:58;13.43;;;7.15;;
59167;SDS011;70412;55.048;73.268;2023-06-26T02:35:01;10.70;;;6.53;;
59167;SDS011;70412;55.048;73.268;2023-06-26T02:38:03;17.05;;;7.38;;
59167;SDS011;70412;55.048;73.268;2023-06-26T02:41:06;11.00;;;6.28;;
59167;SDS011;70412;55.048;73.268;2023-06-26T02:44:09;15.38;;;6.82;;
59167;SDS011;70412;55.048;73.268;2023-06-26T02:47:14;9.90;;;6.80;;
59167;SDS011;70412;55.048;73.268;2023-06-26T02:50:18;10.98;;;6.53;;
59167;SDS011;70412;55.048;73.268;2023-06-26T02:53:38;14.70;;;7.07;;
59167;SDS011;70412;55.048;73.268;2023-06-26T02:56:46;13.65;;;6.50;;
59167;SDS011;70412;55.048;73.268;2023-06-26T02:59:48;13.60;;;7.70;;
59167;SDS011;70412;55.048;73.268;2023-06-26T03:02:51;13.05;;;8.05;;
59167;SDS011;70412;55.048;73.268;2023-06-26T03:05:57;13.13;;;7.53;;
59167;SDS011;70412;55.048;73.268;2023-06-26T03:09:01;14.48;;;8.43;;
59167;SDS011;70412;55.048;73.268;2023-06-26T03:12:04;17.67;;;7.75;;
59167;SDS011;70412;55.048;73.268;2023-06-26T03:15:08;15.35;;;7.63;;
59167;SDS011;70412;55.048;73.268;2023-06-26T03:18:14;13.63;;;7.70;;
59167;SDS011;70412;55.048;73.268;2023-06-26T03:21:16;10.73;;;6.85;;
59167;SDS011;70412;55.048;73.268;2023-06-26T03:24:19;15.00;;;6.30;;
59167;SDS011;70412;55.048;73.268;2023-06-26T03:27:21;13.55;;;6.68;;
59167;SDS011;70412;55.048;73.268;2023-06-26T03:30:25;16.90;;;6.07;;
59167;SDS011;70412;55.048;73.268;2023-06-26T03:33:30;11.00;;;6.63;;
59167;SDS011;70412;55.048;73.268;2023-06-26T03:36:34;12.23;;;6.65;;
59167;SDS011;70412;55.048;73.268;2023-06-26T03:39:38;12.77;;;6.80;;
59167;SDS011;70412;55.048;73.268;2023-06-26T03:42:43;12.88;;;7.32;;
59167;SDS011;70412;55.048;73.268;2023-06-26T03:45:46;16.15;;;7.15;;
59167;SDS011;70412;55.048;73.268;2023-06-26T03:48:49;14.77;;;7.43;;
59167;SDS011;70412;55.048;73.268;2023-06-26T03:51:51;16.13;;;7.35;;
59167;SDS011;70412;55.048;73.268;2023-06-26T03:54:54;14.00;;;6.88;;
59167;SDS011;70412;55.048;73.268;2023-06-26T03:57:56;13.05;;;7.05;;
59167;SDS011;70412;55.048;73.268;2023-06-26T04:00:59;10.77;;;6.75;;
59167;SDS011;70412;55.048;73.268;2023-06-26T04:04:02;19.42;;;6.93;;
59167;SDS011;70412;55.048;73.268;2023-06-26T04:07:07;19.25;;;7.47;;
59167;SDS011;70412;55.048;73.268;2023-06-26T04:10:09;26.90;;;9.45;;
59167;SDS011;70412;55.048;73.268;2023-06-26T04:13:12;34.85;;;9.68;;
59167;SDS011;70412;55.048;73.268;2023-06-26T04:16:18;23.70;;;8.50;;
59167;SDS011;70412;55.048;73.268;2023-06-26T04:19:22;36.63;;;10.13;;
59167;SDS011;70412;55.048;73.268;2023-06-26T04:22:27;24.17;;;9.48;;
59167;SDS011;70412;55.048;73.268;2023-06-26T04:25:29;29.20;;;8.98;;
59167;SDS011;70412;55.048;73.268;2023-06-26T04:28:32;30.85;;;8.63;;
59167;SDS011;70412;55.048;73.268;2023-06-26T04:31:37;33.92;;;8.27;;
59167;SDS011;70412;55.048;73.268;2023-06-26T04:34:40;33.13;;;7.85;;
59167;SDS011;70412;55.048;73.268;2023-06-26T04:37:45;33.08;;;10.27;;
59167;SDS011;70412;55.048;73.268;2023-06-26T04:40:48;38.28;;;10.55;;
59167;SDS011;70412;55.048;73.268;2023-06-26T04:43:51;40.88;;;9.52;;
59167;SDS011;70412;55.048;73.268;2023-06-26T04:46:53;42.65;;;10.95;;
59167;SDS011;70412;55.048;73.268;2023-06-26T04:49:56;32.95;;;9.35;;
59167;SDS011;70412;55.048;73.268;2023-06-26T04:52:59;28.48;;;8.82;;
59167;SDS011;70412;55.048;73.268;2023-06-26T04:56:01;32.53;;;8.38;;
59167;SDS011;70412;55.048;73.268;2023-06-26T04:59:04;34.85;;;13.88;;
59167;SDS011;70412;55.048;73.268;2023-06-26T05:02:07;29.75;;;10.63;;
59167;SDS011;70412;55.048;73.268;2023-06-26T05:05:09;28.50;;;9.90;;
59167;SDS011;70412;55.048;73.268;2023-06-26T05:08:21;20.05;;;7.65;;
59167;SDS011;70412;55.048;73.268;2023-06-26T05:11:27;20.10;;;7.35;;
59167;SDS011;70412;55.048;73.268;2023-06-26T05:14:29;22.63;;;8.02;;
59167;SDS011;70412;55.048;73.268;2023-06-26T05:17:32;26.27;;;10.40;;
59167;SDS011;70412;55.048;73.268;2023-06-26T05:20:35;23.50;;;8.07;;
59167;SDS011;70412;55.048;73.268;2023-06-26T05:23:37;18.55;;;7.85;;
59167;SDS011;70412;55.048;73.268;2023-06-26T05:26:40;23.98;;;7.22;;
59167;SDS011;70412;55.048;73.268;2023-06-26T05:29:43;19.95;;;5.95;;
59167;SDS011;70412;55.048;73.268;2023-06-26T05:32:46;17.02;;;4.95;;
59167;SDS011;70412;55.048;73.268;2023-06-26T05:35:52;17.75;;;5.00;;
59167;SDS011;70412;55.048;73.268;2023-06-26T05:41:58;7.93;;;4.07;;
59167;SDS011;70412;55.048;73.268;2023-06-26T05:45:16;10.65;;;4.10;;
59167;SDS011;70412;55.048;73.268;2023-06-26T05:48:19;8.00;;;3.70;;
59167;SDS011;70412;55.048;73.268;2023-06-26T05:51:21;10.23;;;3.67;;
59167;SDS011;70412;55.048;73.268;2023-06-26T05:54:24;10.00;;;3.60;;
59167;SDS011;70412;55.048;73.268;2023-06-26T05:57:28;7.03;;;4.00;;
59167;SDS011;70412;55.048;73.268;2023-06-26T06:00:31;7.88;;;3.60;;
59167;SDS011;70412;55.048;73.268;2023-06-26T06:03:34;4.68;;;3.30;;
59167;SDS011;70412;55.048;73.268;2023-06-26T06:06:37;8.00;;;3.75;;
59167;SDS011;70412;55.048;73.268;2023-06-26T06:09:39;7.43;;;4.05;;
59167;SDS011;70412;55.048;73.268;2023-06-26T06:12:43;5.55;;;3.55;;
59167;SDS011;70412;55.048;73.268;2023-06-26T06:15:45;11.02;;;3.47;;
59167;SDS011;70412;55.048;73.268;2023-06-26T06:18:48;6.43;;;3.90;;
59167;SDS011;70412;55.048;73.268;2023-06-26T06:21:50;10.20;;;3.42;;
59167;SDS011;70412;55.048;73.268;2023-06-26T06:24:52;5.95;;;3.55;;
59167;SDS011;70412;55.048;73.268;2023-06-26T06:27:55;7.40;;;3.42;;
59167;SDS011;70412;55.048;73.268;2023-06-26T06:31:00;8.65;;;3.40;;
59167;SDS011;70412;55.048;73.268;2023-06-26T06:34:03;8.27;;;3.60;;
59167;SDS011;70412;55.048;73.268;2023-06-26T06:37:06;4.57;;;3.30;;
59167;SDS011;70412;55.048;73.268;2023-06-26T06:40:09;7.35;;;3.85;;
59167;SDS011;70412;55.048;73.268;2023-06-26T06:43:13;9.13;;;3.30;;
59167;SDS011;70412;55.048;73.268;2023-06-26T06:46:16;6.68;;;3.25;;
59167;SDS011;70412;55.048;73.268;2023-06-26T06:49:18;10.05;;;3.85;;
59167;SDS011;70412;55.048;73.268;2023-06-26T06:52:21;6.22;;;3.50;;
59167;SDS011;70412;55.048;73.268;2023-06-26T06:55:23;5.80;;;3.80;;
59167;SDS011;70412;55.048;73.268;2023-06-26T06:58:27;8.85;;;3.97;;
59167;SDS011;70412;55.048;73.268;2023-06-26T07:01:32;6.17;;;3.90;;
59167;SDS011;70412;55.048;73.268;2023-06-26T07:04:34;17.60;;;6.78;;
59167;SDS011;70412;55.048;73.268;2023-06-26T07:07:37;6.80;;;3.75;;
59167;SDS011;70412;55.048;73.268;2023-06-26T07:10:40;10.00;;;4.25;;
59167;SDS011;70412;55.048;73.268;2023-06-26T07:13:42;7.88;;;4.28;;
59167;SDS011;70412;55.048;73.268;2023-06-26T07:16:45;10.20;;;4.15;;
59167;SDS011;70412;55.048;73.268;2023-06-26T07:19:48;5.53;;;3.50;;
59167;SDS011;70412;55.048;73.268;2023-06-26T07:22:52;13.07;;;4.10;;
59167;SDS011;70412;55.048;73.268;2023-06-26T07:25:54;11.00;;;4.20;;
59167;SDS011;70412;55.048;73.268;2023-06-26T07:28:57;11.75;;;4.63;;
59167;SDS011;70412;55.048;73.268;2023-06-26T07:31:59;6.65;;;3.22;;
59167;SDS011;70412;55.048;73.268;2023-06-26T07:35:01;13.43;;;4.32;;
59167;SDS011;70412;55.048;73.268;2023-06-26T07:38:04;7.22;;;3.20;;
59167;SDS011;70412;55.048;73.268;2023-06-26T07:41:06;7.80;;;2.70;;
59167;SDS011;70412;55.048;73.268;2023-06-26T07:44:09;6.78;;;2.35;;
59167;SDS011;70412;55.048;73.268;2023-06-26T07:47:11;4.28;;;2.22;;
59167;SDS011;70412;55.048;73.268;2023-06-26T07:50:14;16.00;;;5.68;;
59167;SDS011;70412;55.048;73.268;2023-06-26T07:53:23;51.53;;;16.20;;
59167;SDS011;70412;55.048;73.268;2023-06-26T07:56:26;12.93;;;6.55;;
59167;SDS011;70412;55.048;73.268;2023-06-26T07:59:31;8.78;;;3.14;;
59167;SDS011;70412;55.048;73.268;2023-06-26T08:02:34;12.57;;;3.40;;
59167;SDS011;70412;55.048;73.268;2023-06-26T08:05:39;22.48;;;8.18;;
59167;SDS011;70412;55.048;73.268;2023-06-26T08:08:41;11.18;;;4.25;;
59167;SDS011;70412;55.048;73.268;2023-06-26T08:11:44;8.13;;;3.40;;
59167;SDS011;70412;55.048;73.268;2023-06-26T08:14:47;6.88;;;3.17;;
59167;SDS011;70412;55.048;73.268;2023-06-26T08:17:49;8.00;;;3.20;;
59167;SDS011;70412;55.048;73.268;2023-06-26T08:20:52;17.25;;;3.97;;
59167;SDS011;70412;55.048;73.268;2023-06-26T08:23:54;9.70;;;3.72;;
59167;SDS011;70412;55.048;73.268;2023-06-26T08:26:57;8.23;;;3.88;;
59167;SDS011;70412;55.048;73.268;2023-06-26T08:30:00;16.77;;;4.40;;
59167;SDS011;70412;55.048;73.268;2023-06-26T08:33:03;15.73;;;6.60;;
59167;SDS011;70412;55.048;73.268;2023-06-26T08:36:06;12.60;;;5.68;;
59167;SDS011;70412;55.048;73.268;2023-06-26T08:39:11;11.93;;;5.68;;
59167;SDS011;70412;55.048;73.268;2023-06-26T08:42:13;7.93;;;4.95;;
59167;SDS011;70412;55.048;73.268;2023-06-26T08:45:16;10.25;;;5.35;;
59167;SDS011;70412;55.048;73.268;2023-06-26T08:48:19;17.60;;;7.03;;
59167;SDS011;70412;55.048;73.268;2023-06-26T08:51:24;12.18;;;6.95;;
59167;SDS011;70412;55.048;73.268;2023-06-26T08:54:30;14.50;;;8.32;;
59167;SDS011;70412;55.048;73.268;2023-06-26T08:57:36;19.88;;;9.63;;
59167;SDS011;70412;55.048;73.268;2023-06-26T09:00:39;16.25;;;10.35;;
59167;SDS011;70412;55.048;73.268;2023-06-26T09:03:42;17.50;;;11.00;;
59167;SDS011;70412;55.048;73.268;2023-06-26T09:06:44;11.27;;;6.75;;
59167;SDS011;70412;55.048;73.268;2023-06-26T09:09:47;6.75;;;4.78;;
59167;SDS011;70412;55.048;73.268;2023-06-26T09:12:50;7.23;;;4.97;;
59167;SDS011;70412;55.048;73.268;2023-06-26T09:15:53;8.82;;;5.00;;
59167;SDS011;70412;55.048;73.268;2023-06-26T09:18:56;8.88;;;4.35;;
59167;SDS011;70412;55.048;73.268;2023-06-26T09:21:59;9.18;;;4.68;;
59167;SDS011;70412;55.048;73.268;2023-06-26T09:25:02;5.07;;;3.50;;
59167;SDS011;70412;55.048;73.268;2023-06-26T09:28:05;8.10;;;4.60;;
59167;SDS011;70412;55.048;73.268;2023-06-26T09:31:08;8.15;;;4.38;;
59167;SDS011;70412;55.048;73.268;2023-06-26T09:34:12;6.60;;;3.60;;
59167;SDS011;70412;55.048;73.268;2023-06-26T09:37:14;5.57;;;3.50;;
59167;SDS011;70412;55.048;73.268;2023-06-26T09:40:17;7.97;;;4.50;;
59167;SDS011;70412;55.048;73.268;2023-06-26T09:43:20;9.27;;;4.00;;
59167;SDS011;70412;55.048;73.268;2023-06-26T09:46:26;5.70;;;3.63;;
59167;SDS011;70412;55.048;73.268;2023-06-26T09:49:30;11.45;;;3.78;;
59167;SDS011;70412;55.048;73.268;2023-06-26T09:52:34;7.65;;;3.90;;
59167;SDS011;70412;55.048;73.268;2023-06-26T09:55:37;9.02;;;3.30;;
59167;SDS011;70412;55.048;73.268;2023-06-26T09:58:40;7.03;;;3.35;;
59167;SDS011;70412;55.048;73.268;2023-06-26T10:01:45;7.78;;;4.30;;
59167;SDS011;70412;55.048;73.268;2023-06-26T10:04:51;8.20;;;3.85;;
59167;SDS011;70412;55.048;73.268;2023-06-26T10:07:53;8.35;;;4.28;;
59167;SDS011;70412;55.048;73.268;2023-06-26T10:10:57;11.60;;;4.45;;
59167;SDS011;70412;55.048;73.268;2023-06-26T10:14:01;12.75;;;4.45;;
59167;SDS011;70412;55.048;73.268;2023-06-26T10:17:08;6.35;;;3.80;;
59167;SDS011;70412;55.048;73.268;2023-06-26T10:20:15;9.95;;;4.03;;
59167;SDS011;70412;55.048;73.268;2023-06-26T10:23:18;10.20;;;3.70;;
59167;SDS011;70412;55.048;73.268;2023-06-26T10:26:22;9.52;;;3.88;;
59167;SDS011;70412;55.048;73.268;2023-06-26T10:32:33;10.07;;;4.53;;
59167;SDS011;70412;55.048;73.268;2023-06-26T10:35:45;8.77;;;3.60;;
59167;SDS011;70412;55.048;73.268;2023-06-26T10:38:48;7.10;;;3.80;;
59167;SDS011;70412;55.048;73.268;2023-06-26T10:41:55;7.18;;;3.90;;
59167;SDS011;70412;55.048;73.268;2023-06-26T10:45:16;5.75;;;3.22;;
59167;SDS011;70412;55.048;73.268;2023-06-26T10:48:21;12.80;;;3.90;;
59167;SDS011;70412;55.048;73.268;2023-06-26T10:51:24;9.68;;;4.22;;
59167;SDS011;70412;55.048;73.268;2023-06-26T10:54:28;8.20;;;3.75;;
59167;SDS011;70412;55.048;73.268;2023-06-26T10:57:32;13.73;;;4.10;;
59167;SDS011;70412;55.048;73.268;2023-06-26T11:00:37;11.70;;;4.57;;
59167;SDS011;70412;55.048;73.268;2023-06-26T11:04:05;11.48;;;4.38;;
59167;SDS011;70412;55.048;73.268;2023-06-26T11:10:25;7.40;;;3.17;;
59167;SDS011;70412;55.048;73.268;2023-06-26T11:13:27;7.47;;;3.78;;
59167;SDS011;70412;55.048;73.268;2023-06-26T11:16:31;9.18;;;3.78;;
59167;SDS011;70412;55.048;73.268;2023-06-26T11:19:35;14.00;;;4.38;;
59167;SDS011;70412;55.048;73.268;2023-06-26T11:22:38;11.15;;;5.28;;
59167;SDS011;70412;55.048;73.268;2023-06-26T11:25:44;13.45;;;4.30;;
59167;SDS011;70412;55.048;73.268;2023-06-26T11:28:51;8.50;;;4.15;;
59167;SDS011;70412;55.048;73.268;2023-06-26T11:32:02;11.13;;;4.80;;
59167;SDS011;70412;55.048;73.268;2023-06-26T11:35:07;10.25;;;7.13;;
59167;SDS011;70412;55.048;73.268;2023-06-26T11:38:11;9.80;;;4.15;;
59167;SDS011;70412;55.048;73.268;2023-06-26T11:41:16;7.35;;;4.75;;
59167;SDS011;70412;55.048;73.268;2023-06-26T11:44:19;9.05;;;3.67;;
59167;SDS011;70412;55.048;73.268;2023-06-26T11:47:23;7.15;;;3.70;;
59167;SDS011;70412;55.048;73.268;2023-06-26T11:50:26;6.03;;;3.67;;
59167;SDS011;70412;55.048;73.268;2023-06-26T11:53:29;6.43;;;4.00;;
59167;SDS011;70412;55.048;73.268;2023-06-26T11:56:31;7.13;;;3.38;;
59167;SDS011;70412;55.048;73.268;2023-06-26T11:59:34;6.03;;;3.20;;
59167;SDS011;70412;55.048;73.268;2023-06-26T12:02:41;5.75;;;3.28;;
59167;SDS011;70412;55.048;73.268;2023-06-26T12:05:45;6.88;;;3.10;;
59167;SDS011;70412;55.048;73.268;2023-06-26T12:08:48;7.25;;;4.35;;
59167;SDS011;70412;55.048;73.268;2023-06-26T12:11:54;6.37;;;3.85;;
59167;SDS011;70412;55.048;73.268;2023-06-26T12:14:58;8.40;;;3.70;;
59167;SDS011;70412;55.048;73.268;2023-06-26T12:18:07;9.23;;;3.50;;
59167;SDS011;70412;55.048;73.268;2023-06-26T12:24:38;13.32;;;5.13;;
59167;SDS011;70412;55.048;73.268;2023-06-26T12:27:44;7.85;;;5.55;;
59167;SDS011;70412;55.048;73.268;2023-06-26T12:31:09;14.13;;;4.32;;
59167;SDS011;70412;55.048;73.268;2023-06-26T12:34:32;4.83;;;3.50;;
59167;SDS011;70412;55.048;73.268;2023-06-26T12:37:38;11.02;;;4.07;;
59167;SDS011;70412;55.048;73.268;2023-06-26T12:40:45;8.23;;;3.63;;
59167;SDS011;70412;55.048;73.268;2023-06-26T12:43:48;10.07;;;4.00;;
59167;SDS011;70412;55.048;73.268;2023-06-26T12:46:56;10.07;;;4.22;;
59167;SDS011;70412;55.048;73.268;2023-06-26T12:50:04;8.02;;;3.88;;
59167;SDS011;70412;55.048;73.268;2023-06-26T12:53:07;10.13;;;4.72;;
59167;SDS011;70412;55.048;73.268;2023-06-26T12:56:10;9.45;;;4.70;;
59167;SDS011;70412;55.048;73.268;2023-06-26T12:59:13;8.10;;;3.70;;
59167;SDS011;70412;55.048;73.268;2023-06-26T13:02:16;11.38;;;4.06;;
59167;SDS011;70412;55.048;73.268;2023-06-26T13:05:19;10.27;;;3.65;;
59167;SDS011;70412;55.048;73.268;2023-06-26T13:08:22;8.45;;;4.25;;
59167;SDS011;70412;55.048;73.268;2023-06-26T13:11:24;10.23;;;4.93;;
59167;SDS011;70412;55.048;73.268;2023-06-26T13:14:27;13.32;;;5.18;;
59167;SDS011;70412;55.048;73.268;2023-06-26T13:17:29;10.98;;;5.18;;
59167;SDS011;70412;55.048;73.268;2023-06-26T13:20:32;14.30;;;4.57;;
59167;SDS011;70412;55.048;73.268;2023-06-26T13:23:34;8.65;;;4.25;;
59167;SDS011;70412;55.048;73.268;2023-06-26T13:26:36;9.77;;;5.50;;
59167;SDS011;70412;55.048;73.268;2023-06-26T13:29:39;10.75;;;4.97;;
59167;SDS011;70412;55.048;73.268;2023-06-26T13:32:41;14.70;;;4.00;;
59167;SDS011;70412;55.048;73.268;2023-06-26T13:35:45;14.50;;;4.00;;
59167;SDS011;70412;55.048;73.268;2023-06-26T13:38:47;12.70;;;3.75;;
59167;SDS011;70412;55.048;73.268;2023-06-26T13:41:56;7.65;;;4.30;;
59167;SDS011;70412;55.048;73.268;2023-06-26T13:44:58;7.53;;;4.95;;
59167;SDS011;70412;55.048;73.268;2023-06-26T13:48:01;9.18;;;4.43;;
59167;SDS011;70412;55.048;73.268;2023-06-26T13:51:03;7.75;;;3.53;;
59167;SDS011;70412;55.048;73.268;2023-06-26T13:54:06;5.22;;;3.55;;
59167;SDS011;70412;55.048;73.268;2023-06-26T13:57:10;4.88;;;3.20;;
59167;SDS011;70412;55.048;73.268;2023-06-26T14:00:13;8.00;;;3.35;;
59167;SDS011;70412;55.048;73.268;2023-06-26T14:03:19;9.27;;;3.65;;
59167;SDS011;70412;55.048;73.268;2023-06-26T14:06:22;6.70;;;2.95;;
59167;SDS011;70412;55.048;73.268;2023-06-26T14:09:24;10.50;;;4.20;;
59167;SDS011;70412;55.048;73.268;2023-06-26T14:12:27;14.50;;;3.60;;
59167;SDS011;70412;55.048;73.268;2023-06-26T14:15:30;15.93;;;5.38;;
59167;SDS011;70412;55.048;73.268;2023-06-26T14:18:32;8.25;;;4.07;;
59167;SDS011;70412;55.048;73.268;2023-06-26T14:21:36;5.57;;;3.28;;
59167;SDS011;70412;55.048;73.268;2023-06-26T14:24:38;7.20;;;3.35;;
59167;SDS011;70412;55.048;73.268;2023-06-26T14:27:41;10.85;;;3.47;;
59167;SDS011;70412;55.048;73.268;2023-06-26T14:30:43;11.13;;;3.15;;
59167;SDS011;70412;55.048;73.268;2023-06-26T14:33:46;5.50;;;3.20;;
59167;SDS011;70412;55.048;73.268;2023-06-26T14:36:48;8.10;;;3.20;;
59167;SDS011;70412;55.048;73.268;2023-06-26T14:40:01;5.75;;;2.83;;
59167;SDS011;70412;55.048;73.268;2023-06-26T14:43:09;5.19;;;3.38;;
59167;SDS011;70412;55.048;73.268;2023-06-26T14:46:12;6.65;;;3.53;;
59167;SDS011;70412;55.048;73.268;2023-06-26T14:49:15;7.43;;;3.70;;
59167;SDS011;70412;55.048;73.268;2023-06-26T14:52:18;9.38;;;3.45;;
59167;SDS011;70412;55.048;73.268;2023-06-26T14:55:20;11.93;;;3.23;;
59167;SDS011;70412;55.048;73.268;2023-06-26T14:58:23;6.15;;;3.13;;
59167;SDS011;70412;55.048;73.268;2023-06-26T15:01:25;5.82;;;3.38;;
59167;SDS011;70412;55.048;73.268;2023-06-26T15:04:28;5.05;;;3.30;;
59167;SDS011;70412;55.048;73.268;2023-06-26T15:07:30;7.20;;;3.42;;
59167;SDS011;70412;55.048;73.268;2023-06-26T15:10:33;8.70;;;3.60;;
59167;SDS011;70412;55.048;73.268;2023-06-26T15:13:35;5.97;;;3.53;;
59167;SDS011;70412;55.048;73.268;2023-06-26T15:16:38;8.50;;;3.20;;
59167;SDS011;70412;55.048;73.268;2023-06-26T15:19:40;5.20;;;3.53;;
59167;SDS011;70412;55.048;73.268;2023-06-26T15:22:43;5.82;;;3.40;;
59167;SDS011;70412;55.048;73.268;2023-06-26T15:25:45;9.57;;;3.55;;
59167;SDS011;70412;55.048;73.268;2023-06-26T15:28:48;7.05;;;3.47;;
59167;SDS011;70412;55.048;73.268;2023-06-26T15:31:50;4.78;;;3.08;;
59167;SDS011;70412;55.048;73.268;2023-06-26T15:34:53;16.17;;;3.80;;
59167;SDS011;70412;55.048;73.268;2023-06-26T15:37:56;6.63;;;3.47;;
59167;SDS011;70412;55.048;73.268;2023-06-26T15:40:59;4.97;;;3.45;;
59167;SDS011;70412;55.048;73.268;2023-06-26T15:44:03;5.22;;;3.65;;
59167;SDS011;70412;55.048;73.268;2023-06-26T15:47:06;7.20;;;3.42;;
59167;SDS011;70412;55.048;73.268;2023-06-26T15:50:08;6.18;;;3.80;;
59167;SDS011;70412;55.048;73.268;2023-06-26T15:53:15;10.98;;;4.70;;
59167;SDS011;70412;55.048;73.268;2023-06-26T15:56:19;8.68;;;4.28;;
59167;SDS011;70412;55.048;73.268;2023-06-26T15:59:22;5.50;;;3.53;;
59167;SDS011;70412;55.048;73.268;2023-06-26T16:02:25;9.25;;;3.95;;
59167;SDS011;70412;55.048;73.268;2023-06-26T16:05:27;9.93;;;3.65;;
59167;SDS011;70412;55.048;73.268;2023-06-26T16:08:30;8.18;;;3.72;;
59167;SDS011;70412;55.048;73.268;2023-06-26T16:11:32;6.45;;;3.90;;
59167;SDS011;70412;55.048;73.268;2023-06-26T16:14:35;6.50;;;4.00;;
59167;SDS011;70412;55.048;73.268;2023-06-26T16:17:37;5.95;;;4.00;;
59167;SDS011;70412;55.048;73.268;2023-06-26T16:20:40;8.75;;;4.25;;
59167;SDS011;70412;55.048;73.268;2023-06-26T16:23:42;11.73;;;5.13;;
59167;SDS011;70412;55.048;73.268;2023-06-26T16:26:47;17.50;;;6.03;;
59167;SDS011;70412;55.048;73.268;2023-06-26T16:29:49;16.15;;;6.97;;
59167;SDS011;70412;55.048;73.268;2023-06-26T16:32:51;15.10;;;6.10;;
59167;SDS011;70412;55.048;73.268;2023-06-26T16:35:55;13.87;;;6.33;;
59167;SDS011;70412;55.048;73.268;2023-06-26T16:38:57;13.25;;;5.60;;
59167;SDS011;70412;55.048;73.268;2023-06-26T16:42:05;9.27;;;5.03;;
59167;SDS011;70412;55.048;73.268;2023-06-26T16:45:09;8.70;;;4.00;;
59167;SDS011;70412;55.048;73.268;2023-06-26T16:48:12;8.63;;;4.35;;
59167;SDS011;70412;55.048;73.268;2023-06-26T16:51:15;7.72;;;4.50;;
59167;SDS011;70412;55.048;73.268;2023-06-26T16:54:21;9.64;;;4.14;;
59167;SDS011;70412;55.048;73.268;2023-06-26T16:57:24;6.47;;;4.15;;
59167;SDS011;70412;55.048;73.268;2023-06-26T17:00:26;7.57;;;4.10;;
59167;SDS011;70412;55.048;73.268;2023-06-26T17:03:29;5.45;;;3.90;;
59167;SDS011;70412;55.048;73.268;2023-06-26T17:06:32;7.82;;;3.75;;
59167;SDS011;70412;55.048;73.268;2023-06-26T17:09:37;7.32;;;4.10;;
59167;SDS011;70412;55.048;73.268;2023-06-26T17:12:39;5.70;;;3.85;;
59167;SDS011;70412;55.048;73.268;2023-06-26T17:15:43;6.40;;;3.72;;
59167;SDS011;70412;55.048;73.268;2023-06-26T17:18:45;7.40;;;3.53;;
59167;SDS011;70412;55.048;73.268;2023-06-26T17:21:48;9.63;;;3.65;;
59167;SDS011;70412;55.048;73.268;2023-06-26T17:24:50;9.47;;;3.23;;
59167;SDS011;70412;55.048;73.268;2023-06-26T17:27:53;5.88;;;3.10;;
59167;SDS011;70412;55.048;73.268;2023-06-26T17:30:55;4.68;;;3.28;;
59167;SDS011;70412;55.048;73.268;2023-06-26T17:33:58;7.93;;;3.67;;
59167;SDS011;70412;55.048;73.268;2023-06-26T17:37:01;7.00;;;3.42;;
59167;SDS011;70412;55.048;73.268;2023-06-26T17:40:04;5.32;;;3.20;;
59167;SDS011;70412;55.048;73.268;2023-06-26T17:43:10;6.03;;;2.85;;
59167;SDS011;70412;55.048;73.268;2023-06-26T17:46:13;9.05;;;3.90;;
59167;SDS011;70412;55.048;73.268;2023-06-26T17:49:16;7.28;;;3.55;;
59167;SDS011;70412;55.048;73.268;2023-06-26T17:52:18;7.43;;;3.55;;
59167;SDS011;70412;55.048;73.268;2023-06-26T17:55:21;5.53;;;3.42;;
59167;SDS011;70412;55.048;73.268;2023-06-26T17:58:23;7.22;;;3.55;;
59167;SDS011;70412;55.048;73.268;2023-06-26T18:01:25;5.93;;;3.67;;
59167;SDS011;70412;55.048;73.268;2023-06-26T18:04:30;6.82;;;3.80;;
59167;SDS011;70412;55.048;73.268;2023-06-26T18:07:34;4.18;;;2.95;;
59167;SDS011;70412;55.048;73.268;2023-06-26T18:10:37;8.98;;;3.30;;
59167;SDS011;70412;55.048;73.268;2023-06-26T18:13:40;8.93;;;3.42;;
59167;SDS011;70412;55.048;73.268;2023-06-26T18:16:42;8.10;;;4.07;;
59167;SDS011;70412;55.048;73.268;2023-06-26T18:19:47;9.07;;;3.90;;